Terminal Aerodrome Forecast
Issued by NWS

Home | Current Version | Previous Version | Text Only | Print | Product List | Glossary On
Versions: 1 2 3 4 5 6 7 8 9 10 11 12 13 14 15 16
022
FTUS43 KIND 212020 AAA
TAFBMG
TAF AMD
KBMG 212020Z 2120/2218 08007KT P6SM BKN250
     FM220000 07008KT P6SM BKN200=

USA.gov is the U.S. government's official web portal to all federal, state and local government web resources and services.